Time;durP1;ratioP1;P1;durP2;ratioP2;P2;SDS_P1;SDS_P2;PMS_P1;PMS_P2;Temp;Humidity;BMP_temperature;BMP_pressure;BME280_temperature;BME280_humidity;BME280_pressure;Samples;Min_cycle;Max_cycle;Signal;HPM_P1;HPM_P2
2022/12/01 15:22:54;;;;;;;8.08;5.05;;;;;;;5.23;78.32;102543.50;1758841;80;21158;-57
2022/12/01 15:25:22;;;;;;;9.25;6.58;;;;;;;5.48;76.59;102540.73;1767296;80;21109;-56
2022/12/01 15:28:12;;;;;;;11.80;6.35;;;;;;;5.58;75.81;102527.27;1746031;80;21047;-58
2022/12/01 15:30:40;;;;;;;13.15;6.08;;;;;;;5.66;75.20;102525.77;1668613;84;21050;-57
2022/12/01 15:33:13;;;;;;;8.20;5.97;;;;;;;5.74;74.80;102524.66;1670263;84;21061;-57
2022/12/01 15:35:41;;;;;;;7.70;5.62;;;;;;;5.79;74.51;102525.22;1642659;85;21068;-56
2022/12/01 15:38:15;;;;;;;11.12;6.85;;;;;;;5.86;74.10;102515.96;1648130;84;21091;-57
2022/12/01 15:40:41;;;;;;;14.60;7.67;;;;;;;5.93;73.80;102528.21;1677163;84;22290;-57
2022/12/01 15:43:19;;;;;;;13.40;6.35;;;;;;;5.98;73.57;102524.02;1646965;85;21138;-56
2022/12/01 15:46:00;;;;;;;11.40;4.55;;;;;;;6.04;73.43;102529.33;1660219;85;21030;-56
2022/12/01 15:48:30;;;;;;;7.28;3.92;;;;;;;6.09;72.95;102525.16;1662862;85;21573;-57
2022/12/01 15:51:14;;;;;;;9.05;4.35;;;;;;;6.14;72.58;102521.41;1649879;85;21034;-56
2022/12/01 15:53:59;;;;;;;8.23;4.30;;;;;;;6.17;72.41;102521.05;1656143;84;21608;-56
2022/12/01 15:56:35;;;;;;;9.35;5.35;;;;;;;6.23;72.24;102521.20;1573377;89;21090;-57
2022/12/01 15:59:34;;;;;;;9.50;4.87;;;;;;;6.27;72.04;102525.60;1581339;89;21127;-57
2022/12/01 16:02:18;;;;;;;8.75;5.00;;;;;;;6.31;71.76;102517.08;1575297;89;21106;-56
2022/12/01 16:04:45;;;;;;;5.00;3.58;;;;;;;6.34;71.05;102522.34;1534314;93;21083;-56
2022/12/01 16:07:12;;;;;;;8.38;4.28;;;;;;;6.32;70.94;102516.27;1525816;93;21566;-56
2022/12/01 16:09:57;;;;;;;9.48;3.77;;;;;;;6.33;70.93;102517.98;1519410;93;21118;-56
2022/12/01 16:12:27;;;;;;;8.53;3.72;;;;;;;6.37;71.01;102515.93;1509789;93;21164;-57
2022/12/01 16:15:06;;;;;;;9.90;3.67;;;;;;;6.41;70.62;102516.45;1448429;97;21141;-56
2022/12/01 16:17:49;;;;;;;8.58;4.22;;;;;;;6.43;70.48;102507.02;1444447;98;21281;-57
2022/12/01 16:20:25;;;;;;;5.28;3.27;;;;;;;6.41;70.27;102509.98;1439799;99;21172;-57
2022/12/01 16:23:01;;;;;;;7.15;3.52;;;;;;;6.43;70.26;102514.78;1448315;97;21679;-57
2022/12/01 16:25:43;;;;;;;8.20;4.20;;;;;;;6.46;70.24;102510.10;1481397;95;21178;-57
2022/12/01 16:28:27;;;;;;;7.62;3.98;;;;;;;6.46;70.17;102509.69;1462206;96;22261;-58
2022/12/01 16:30:53;;;;;;;6.03;3.25;;;;;;;6.45;70.07;102514.39;1492724;95;21600;-57
2022/12/01 16:33:23;;;;;;;12.33;3.20;;;;;;;6.43;70.41;102517.77;1502679;93;21117;-58
2022/12/01 16:35:50;;;;;;;5.75;3.42;;;;;;;6.45;70.64;102518.27;1472394;96;21699;-58
2022/12/01 16:38:21;;;;;;;8.43;4.03;;;;;;;6.48;70.88;102527.81;1472183;96;21252;-57
2022/12/01 16:40:52;;;;;;;5.23;3.00;;;;;;;6.50;70.95;102521.84;1454862;95;21202;-57
2022/12/01 16:43:22;;;;;;;3.67;2.80;;;;;;;6.53;70.90;102527.07;1513591;93;21106;-57
2022/12/01 16:45:51;;;;;;;6.33;3.20;;;;;;;6.56;70.78;102518.11;1515547;94;21090;-58
2022/12/01 16:48:19;;;;;;;7.08;3.47;;;;;;;6.57;70.78;102519.84;1509989;93;21150;-58
2022/12/01 16:50:49;;;;;;;7.90;3.45;;;;;;;6.61;70.75;102521.22;1505003;94;21118;-58
2022/12/01 16:53:16;;;;;;;9.30;4.03;;;;;;;6.64;70.64;102518.67;1540566;91;21192;-57
2022/12/01 16:55:57;;;;;;;5.45;3.20;;;;;;;6.66;70.67;102524.34;1552274;92;21086;-58
2022/12/01 16:58:24;;;;;;;7.28;3.30;;;;;;;6.70;70.74;102531.78;1538519;92;21090;-58
2022/12/01 17:00:51;;;;;;;10.23;4.58;;;;;;;6.73;70.51;102537.00;1548002;92;21610;-58
2022/12/01 17:03:20;;;;;;;7.22;4.00;;;;;;;6.74;70.38;102529.70;1550364;92;21109;-58
2022/12/01 17:05:47;;;;;;;5.40;3.17;;;;;;;6.73;70.24;102522.77;1545139;92;21109;-59
2022/12/01 17:08:15;;;;;;;6.78;3.55;;;;;;;6.73;70.28;102518.89;1546788;92;21078;-58
2022/12/01 17:10:43;;;;;;;8.63;3.33;;;;;;;6.73;70.29;102524.06;1558381;88;21605;-58
2022/12/01 17:13:10;;;;;;;6.37;3.10;;;;;;;6.74;70.27;102521.95;1618633;87;21561;-57
2022/12/01 17:15:45;;;;;;;5.28;2.85;;;;;;;6.64;70.66;102518.67;1613501;87;21086;-57
2022/12/01 17:18:13;;;;;;;5.72;2.60;;;;;;;6.63;70.70;102509.19;1622153;87;21183;-58
2022/12/01 17:20:39;;;;;;;5.28;2.72;;;;;;;6.76;70.24;102513.36;1622651;87;21098;-57
2022/12/01 17:23:06;;;;;;;4.70;2.98;;;;;;;6.80;70.20;102522.08;1621862;87;21197;-57
2022/12/01 17:25:33;;;;;;;6.72;3.40;;;;;;;6.81;70.21;102515.64;1615337;87;21064;-58
2022/12/01 17:28:00;;;;;;;7.00;2.85;;;;;;;6.83;70.20;102515.66;1630251;87;21059;-58
2022/12/01 17:30:27;;;;;;;9.70;2.52;;;;;;;6.84;70.20;102512.25;1612439;87;21119;-58
2022/12/01 17:32:53;;;;;;;9.90;4.33;;;;;;;6.85;70.13;102507.51;1662671;84;21054;-58
2022/12/01 17:35:21;;;;;;;6.53;3.62;;;;;;;6.87;70.20;102514.88;1679746;83;21059;-58
2022/12/01 17:37:48;;;;;;;11.08;3.67;;;;;;;6.89;70.18;102507.61;1671452;84;21062;-58
2022/12/01 17:40:14;;;;;;;6.92;3.20;;;;;;;6.91;70.06;102519.28;1669170;85;21081;-58
2022/12/01 17:42:41;;;;;;;5.95;3.30;;;;;;;6.91;70.01;102508.93;1691436;84;21075;-58
2022/12/01 17:45:09;;;;;;;5.60;2.85;;;;;;;6.96;69.95;102513.38;1693661;84;21039;-58
2022/12/01 17:47:35;;;;;;;5.17;2.65;;;;;;;6.99;69.74;102508.66;1697415;84;21578;-58
2022/12/01 17:50:03;;;;;;;6.30;3.22;;;;;;;7.00;69.65;102514.31;1699848;84;21054;-58
2022/12/01 17:52:30;;;;;;;7.92;3.20;;;;;;;7.00;69.64;102507.84;1692016;84;21004;-58
2022/12/01 17:54:57;;;;;;;14.47;3.98;;;;;;;7.00;69.59;102514.31;1696236;84;21042;-58
2022/12/01 17:57:23;;;;;;;5.03;2.90;;;;;;;7.02;69.70;102510.92;1737134;81;21074;-58
2022/12/01 17:59:50;;;;;;;7.35;3.20;;;;;;;7.04;69.66;102513.53;1729629;82;21050;-58
2022/12/01 18:02:17;;;;;;;5.45;2.85;;;;;;;7.03;69.49;102522.13;1704661;83;21094;-58
2022/12/01 18:04:43;;;;;;;8.03;2.90;;;;;;;7.04;69.58;102521.30;1719175;82;21495;-58
2022/12/01 18:07:11;;;;;;;4.00;2.58;;;;;;;7.05;69.52;102505.78;1707915;83;21042;-57
2022/12/01 18:09:38;;;;;;;7.40;2.80;;;;;;;7.05;69.35;102507.50;1719392;82;21034;-58
2022/12/01 18:12:05;;;;;;;6.03;2.42;;;;;;;7.04;69.37;102510.94;1750692;80;21536;-58
2022/12/01 18:14:33;;;;;;;8.85;3.15;;;;;;;7.06;69.33;102520.91;1680427;84;21608;-58
2022/12/01 18:17:00;;;;;;;7.45;3.58;;;;;;;7.07;69.26;102513.16;1691582;84;21106;-58
2022/12/01 18:19:27;;;;;;;7.20;3.75;;;;;;;7.08;69.20;102520.52;1660135;85;21621;-58
2022/12/01 18:21:53;;;;;;;6.47;2.60;;;;;;;7.10;69.01;102527.89;1650144;84;21118;-58
2022/12/01 18:24:20;;;;;;;8.35;3.20;;;;;;;7.08;68.94;102527.87;1649326;85;21124;-57
2022/12/01 18:26:47;;;;;;;6.10;2.62;;;;;;;7.08;68.89;102530.45;1668475;85;21067;-58
2022/12/01 18:29:24;;;;;;;6.40;3.37;;;;;;;7.08;69.00;102538.63;1662797;84;21090;-58
2022/12/01 18:31:47;;;;;;;6.37;3.15;;;;;;;7.09;69.15;102533.92;1658844;84;21105;-58
2022/12/01 18:34:14;;;;;;;6.65;2.83;;;;;;;7.11;69.05;102521.89;1652962;86;21085;-58
2022/12/01 18:36:41;;;;;;;6.53;2.90;;;;;;;7.12;69.03;102521.03;1648897;85;21584;-57
2022/12/01 18:39:08;;;;;;;7.72;3.33;;;;;;;7.13;68.93;102525.37;1675854;84;21553;-58
2022/12/01 18:41:36;;;;;;;7.58;3.22;;;;;;;7.16;68.90;102526.72;1727274;82;21031;-57
2022/12/01 18:44:03;;;;;;;7.40;3.72;;;;;;;7.17;68.78;102523.30;1694306;83;21078;-58
2022/12/01 18:46:30;;;;;;;6.28;3.62;;;;;;;7.17;68.69;102524.15;1744643;81;22169;-57
2022/12/01 18:49:01;;;;;;;7.33;3.58;;;;;;;7.19;68.50;102521.62;1750043;80;21055;-58
2022/12/01 18:51:29;;;;;;;6.47;3.23;;;;;;;7.18;68.40;102518.56;1743958;81;21026;-57
2022/12/01 18:53:57;;;;;;;6.70;3.33;;;;;;;7.19;68.39;102513.84;1740757;81;21029;-57
2022/12/01 18:56:24;;;;;;;5.78;3.20;;;;;;;7.19;68.27;102517.73;1743159;80;21057;-58
2022/12/01 18:59:01;;;;;;;9.83;3.33;;;;;;;7.18;68.25;102522.03;1738986;81;21834;-58
2022/12/01 19:01:32;;;;;;;6.47;3.17;;;;;;;7.18;68.36;102522.45;1738217;81;21104;-58
2022/12/01 19:03:59;;;;;;;5.15;2.83;;;;;;;7.18;68.30;102518.56;1712811;81;21057;-57
2022/12/01 19:06:26;;;;;;;6.90;3.17;;;;;;;7.17;68.26;102515.09;1690275;82;21041;-58
2022/12/01 19:08:53;;;;;;;6.92;3.08;;;;;;;7.16;67.79;102516.36;1709318;82;21142;-58
2022/12/01 19:11:20;;;;;;;7.83;2.77;;;;;;;7.10;67.60;102509.77;1718896;81;21532;-58
2022/12/01 19:13:47;;;;;;;8.90;4.17;;;;;;;7.04;67.92;102501.88;1724626;81;21569;-60
2022/12/01 19:16:16;;;;;;;11.88;5.03;;;;;;;7.02;68.10;102496.69;1717156;81;20990;-58
2022/12/01 19:18:44;;;;;;;10.32;4.67;;;;;;;6.99;68.12;102497.91;1669688;85;21022;-58
2022/12/01 19:21:13;;;;;;;5.50;4.03;;;;;;;6.97;68.11;102500.87;1672717;85;21061;-58
